sensor_id;sensor_type;location;lat;lon;timestamp;P1;durP1;ratioP1;P2;durP2;ratioP2
25511;SDS011;13414;44.534;18.700;2022-12-07T00:00:54;126.18;;;81.78;;
25511;SDS011;13414;44.534;18.700;2022-12-07T00:03:22;130.60;;;82.90;;
25511;SDS011;13414;44.534;18.700;2022-12-07T00:05:51;125.97;;;80.35;;
25511;SDS011;13414;44.534;18.700;2022-12-07T00:08:18;130.88;;;85.07;;
25511;SDS011;13414;44.534;18.700;2022-12-07T00:10:45;127.30;;;82.97;;
25511;SDS011;13414;44.534;18.700;2022-12-07T00:13:13;126.70;;;85.45;;
25511;SDS011;13414;44.534;18.700;2022-12-07T00:15:40;126.63;;;82.28;;
25511;SDS011;13414;44.534;18.700;2022-12-07T00:18:07;133.93;;;86.05;;
25511;SDS011;13414;44.534;18.700;2022-12-07T00:20:35;123.00;;;82.85;;
25511;SDS011;13414;44.534;18.700;2022-12-07T00:23:03;127.90;;;82.97;;
25511;SDS011;13414;44.534;18.700;2022-12-07T00:25:31;138.18;;;89.82;;
25511;SDS011;13414;44.534;18.700;2022-12-07T00:27:58;125.45;;;82.13;;
25511;SDS011;13414;44.534;18.700;2022-12-07T00:30:25;132.00;;;86.75;;
25511;SDS011;13414;44.534;18.700;2022-12-07T00:32:53;134.75;;;90.10;;
25511;SDS011;13414;44.534;18.700;2022-12-07T00:35:20;170.15;;;104.55;;
25511;SDS011;13414;44.534;18.700;2022-12-07T00:37:48;190.23;;;113.93;;
25511;SDS011;13414;44.534;18.700;2022-12-07T00:40:16;185.93;;;113.47;;
25511;SDS011;13414;44.534;18.700;2022-12-07T00:42:44;170.63;;;105.78;;
25511;SDS011;13414;44.534;18.700;2022-12-07T00:45:11;153.15;;;98.22;;
25511;SDS011;13414;44.534;18.700;2022-12-07T00:47:46;150.45;;;96.72;;
25511;SDS011;13414;44.534;18.700;2022-12-07T00:50:13;148.32;;;95.10;;
25511;SDS011;13414;44.534;18.700;2022-12-07T00:52:40;157.00;;;99.18;;
25511;SDS011;13414;44.534;18.700;2022-12-07T00:55:08;159.25;;;100.38;;
25511;SDS011;13414;44.534;18.700;2022-12-07T00:57:39;146.45;;;96.07;;
25511;SDS011;13414;44.534;18.700;2022-12-07T01:00:06;159.23;;;98.95;;
25511;SDS011;13414;44.534;18.700;2022-12-07T01:02:34;145.23;;;92.63;;
25511;SDS011;13414;44.534;18.700;2022-12-07T01:05:02;129.23;;;85.68;;
25511;SDS011;13414;44.534;18.700;2022-12-07T01:07:30;141.40;;;92.05;;
25511;SDS011;13414;44.534;18.700;2022-12-07T01:09:57;138.02;;;87.45;;
25511;SDS011;13414;44.534;18.700;2022-12-07T01:12:25;143.45;;;89.45;;
25511;SDS011;13414;44.534;18.700;2022-12-07T01:14:53;126.03;;;83.47;;
25511;SDS011;13414;44.534;18.700;2022-12-07T01:17:21;133.70;;;84.05;;
25511;SDS011;13414;44.534;18.700;2022-12-07T01:19:48;135.52;;;86.95;;
25511;SDS011;13414;44.534;18.700;2022-12-07T01:22:15;135.55;;;85.57;;
25511;SDS011;13414;44.534;18.700;2022-12-07T01:24:43;129.98;;;83.80;;
25511;SDS011;13414;44.534;18.700;2022-12-07T01:27:12;134.82;;;84.82;;
25511;SDS011;13414;44.534;18.700;2022-12-07T01:29:39;151.18;;;90.88;;
25511;SDS011;13414;44.534;18.700;2022-12-07T01:32:08;140.77;;;88.72;;
25511;SDS011;13414;44.534;18.700;2022-12-07T01:34:36;133.15;;;88.13;;
25511;SDS011;13414;44.534;18.700;2022-12-07T01:37:03;142.65;;;90.65;;
25511;SDS011;13414;44.534;18.700;2022-12-07T01:39:31;133.68;;;84.40;;
25511;SDS011;13414;44.534;18.700;2022-12-07T01:41:58;136.30;;;87.28;;
25511;SDS011;13414;44.534;18.700;2022-12-07T01:44:26;137.23;;;87.57;;
25511;SDS011;13414;44.534;18.700;2022-12-07T01:46:55;136.75;;;86.78;;
25511;SDS011;13414;44.534;18.700;2022-12-07T01:49:28;150.55;;;94.95;;
25511;SDS011;13414;44.534;18.700;2022-12-07T01:52:01;148.30;;;92.40;;
25511;SDS011;13414;44.534;18.700;2022-12-07T01:54:35;146.57;;;90.68;;
25511;SDS011;13414;44.534;18.700;2022-12-07T01:57:03;148.50;;;92.50;;
25511;SDS011;13414;44.534;18.700;2022-12-07T01:59:34;140.13;;;87.95;;
25511;SDS011;13414;44.534;18.700;2022-12-07T02:02:02;138.55;;;87.45;;
25511;SDS011;13414;44.534;18.700;2022-12-07T02:04:35;138.10;;;88.75;;
25511;SDS011;13414;44.534;18.700;2022-12-07T02:07:04;139.02;;;84.82;;
25511;SDS011;13414;44.534;18.700;2022-12-07T02:09:33;138.48;;;84.50;;
25511;SDS011;13414;44.534;18.700;2022-12-07T02:12:00;139.68;;;83.70;;
25511;SDS011;13414;44.534;18.700;2022-12-07T02:14:28;145.52;;;93.18;;
25511;SDS011;13414;44.534;18.700;2022-12-07T02:16:59;142.82;;;87.32;;
25511;SDS011;13414;44.534;18.700;2022-12-07T02:19:57;126.28;;;79.65;;
25511;SDS011;13414;44.534;18.700;2022-12-07T02:22:47;129.32;;;79.47;;
25511;SDS011;13414;44.534;18.700;2022-12-07T02:25:30;138.15;;;81.80;;
25511;SDS011;13414;44.534;18.700;2022-12-07T02:28:11;133.10;;;81.15;;
25511;SDS011;13414;44.534;18.700;2022-12-07T02:30:45;134.20;;;84.85;;
25511;SDS011;13414;44.534;18.700;2022-12-07T02:33:16;131.85;;;82.70;;
25511;SDS011;13414;44.534;18.700;2022-12-07T02:35:48;130.65;;;82.85;;
25511;SDS011;13414;44.534;18.700;2022-12-07T02:38:25;134.63;;;87.45;;
25511;SDS011;13414;44.534;18.700;2022-12-07T02:41:00;135.70;;;85.10;;
25511;SDS011;13414;44.534;18.700;2022-12-07T02:43:33;132.30;;;84.32;;
25511;SDS011;13414;44.534;18.700;2022-12-07T02:46:06;114.80;;;74.63;;
25511;SDS011;13414;44.534;18.700;2022-12-07T02:48:36;113.97;;;73.18;;
25511;SDS011;13414;44.534;18.700;2022-12-07T02:51:05;107.22;;;68.72;;
25511;SDS011;13414;44.534;18.700;2022-12-07T02:53:33;104.30;;;69.15;;
25511;SDS011;13414;44.534;18.700;2022-12-07T02:56:03;110.28;;;68.72;;
25511;SDS011;13414;44.534;18.700;2022-12-07T02:58:42;111.10;;;72.13;;
25511;SDS011;13414;44.534;18.700;2022-12-07T03:01:25;116.53;;;74.25;;
25511;SDS011;13414;44.534;18.700;2022-12-07T03:04:02;118.47;;;77.15;;
25511;SDS011;13414;44.534;18.700;2022-12-07T03:06:42;114.53;;;71.38;;
25511;SDS011;13414;44.534;18.700;2022-12-07T03:09:17;106.28;;;67.50;;
25511;SDS011;13414;44.534;18.700;2022-12-07T03:11:52;107.00;;;68.82;;
25511;SDS011;13414;44.534;18.700;2022-12-07T03:14:26;109.57;;;70.70;;
25511;SDS011;13414;44.534;18.700;2022-12-07T03:17:00;96.85;;;63.25;;
25511;SDS011;13414;44.534;18.700;2022-12-07T03:19:34;107.03;;;69.10;;
25511;SDS011;13414;44.534;18.700;2022-12-07T03:22:03;106.65;;;69.15;;
25511;SDS011;13414;44.534;18.700;2022-12-07T03:24:35;107.93;;;71.30;;
25511;SDS011;13414;44.534;18.700;2022-12-07T03:27:06;97.10;;;64.45;;
25511;SDS011;13414;44.534;18.700;2022-12-07T03:29:38;91.30;;;58.80;;
25511;SDS011;13414;44.534;18.700;2022-12-07T03:32:13;95.55;;;61.13;;
25511;SDS011;13414;44.534;18.700;2022-12-07T03:34:46;88.65;;;58.17;;
25511;SDS011;13414;44.534;18.700;2022-12-07T03:37:18;86.85;;;56.97;;
25511;SDS011;13414;44.534;18.700;2022-12-07T03:39:54;91.03;;;59.63;;
25511;SDS011;13414;44.534;18.700;2022-12-07T03:42:28;85.95;;;52.55;;
25511;SDS011;13414;44.534;18.700;2022-12-07T03:44:57;90.03;;;56.28;;
25511;SDS011;13414;44.534;18.700;2022-12-07T03:47:27;82.60;;;53.47;;
25511;SDS011;13414;44.534;18.700;2022-12-07T03:50:00;86.75;;;56.38;;
25511;SDS011;13414;44.534;18.700;2022-12-07T03:52:33;82.13;;;54.45;;
25511;SDS011;13414;44.534;18.700;2022-12-07T03:55:06;74.55;;;49.60;;
25511;SDS011;13414;44.534;18.700;2022-12-07T03:57:37;76.90;;;52.03;;
25511;SDS011;13414;44.534;18.700;2022-12-07T04:00:08;77.88;;;53.00;;
25511;SDS011;13414;44.534;18.700;2022-12-07T04:02:41;81.70;;;55.72;;
25511;SDS011;13414;44.534;18.700;2022-12-07T04:05:09;79.93;;;54.30;;
25511;SDS011;13414;44.534;18.700;2022-12-07T04:07:37;81.65;;;53.97;;
25511;SDS011;13414;44.534;18.700;2022-12-07T04:10:05;78.57;;;53.42;;
25511;SDS011;13414;44.534;18.700;2022-12-07T04:12:33;79.97;;;52.80;;
25511;SDS011;13414;44.534;18.700;2022-12-07T04:15:01;77.63;;;52.67;;
25511;SDS011;13414;44.534;18.700;2022-12-07T04:17:28;73.65;;;50.63;;
25511;SDS011;13414;44.534;18.700;2022-12-07T04:19:57;76.13;;;51.17;;
25511;SDS011;13414;44.534;18.700;2022-12-07T04:22:24;76.95;;;51.88;;
25511;SDS011;13414;44.534;18.700;2022-12-07T04:24:52;83.43;;;53.20;;
25511;SDS011;13414;44.534;18.700;2022-12-07T04:27:20;81.78;;;52.75;;
25511;SDS011;13414;44.534;18.700;2022-12-07T04:29:47;82.70;;;54.08;;
25511;SDS011;13414;44.534;18.700;2022-12-07T04:32:15;82.93;;;54.97;;
25511;SDS011;13414;44.534;18.700;2022-12-07T04:34:42;82.68;;;52.95;;
25511;SDS011;13414;44.534;18.700;2022-12-07T04:37:11;85.97;;;54.00;;
25511;SDS011;13414;44.534;18.700;2022-12-07T04:39:38;78.90;;;51.80;;
25511;SDS011;13414;44.534;18.700;2022-12-07T04:42:05;75.18;;;50.72;;
25511;SDS011;13414;44.534;18.700;2022-12-07T04:44:33;78.10;;;52.50;;
25511;SDS011;13414;44.534;18.700;2022-12-07T04:47:01;85.03;;;57.38;;
25511;SDS011;13414;44.534;18.700;2022-12-07T04:49:28;88.68;;;55.92;;
25511;SDS011;13414;44.534;18.700;2022-12-07T04:51:56;83.15;;;56.97;;
25511;SDS011;13414;44.534;18.700;2022-12-07T04:54:25;80.45;;;53.88;;
25511;SDS011;13414;44.534;18.700;2022-12-07T04:56:52;82.47;;;54.42;;
25511;SDS011;13414;44.534;18.700;2022-12-07T04:59:19;70.57;;;47.10;;
25511;SDS011;13414;44.534;18.700;2022-12-07T05:01:47;69.88;;;45.25;;
25511;SDS011;13414;44.534;18.700;2022-12-07T05:04:14;66.53;;;46.05;;
25511;SDS011;13414;44.534;18.700;2022-12-07T05:06:43;71.90;;;50.17;;
25511;SDS011;13414;44.534;18.700;2022-12-07T05:09:11;76.03;;;50.78;;
25511;SDS011;13414;44.534;18.700;2022-12-07T05:11:40;62.45;;;42.20;;
25511;SDS011;13414;44.534;18.700;2022-12-07T05:14:09;81.82;;;55.42;;
25511;SDS011;13414;44.534;18.700;2022-12-07T05:16:39;79.78;;;51.80;;
25511;SDS011;13414;44.534;18.700;2022-12-07T05:19:06;70.85;;;46.25;;
25511;SDS011;13414;44.534;18.700;2022-12-07T05:21:34;73.32;;;46.40;;
25511;SDS011;13414;44.534;18.700;2022-12-07T05:24:02;64.40;;;43.45;;
25511;SDS011;13414;44.534;18.700;2022-12-07T05:26:30;67.18;;;44.25;;
25511;SDS011;13414;44.534;18.700;2022-12-07T05:28:59;63.75;;;42.45;;
25511;SDS011;13414;44.534;18.700;2022-12-07T05:31:27;73.47;;;48.22;;
25511;SDS011;13414;44.534;18.700;2022-12-07T05:33:54;75.22;;;50.22;;
25511;SDS011;13414;44.534;18.700;2022-12-07T05:36:22;79.03;;;52.65;;
25511;SDS011;13414;44.534;18.700;2022-12-07T05:38:49;79.68;;;52.70;;
25511;SDS011;13414;44.534;18.700;2022-12-07T05:41:17;84.93;;;57.17;;
25511;SDS011;13414;44.534;18.700;2022-12-07T05:44:04;80.18;;;52.17;;
25511;SDS011;13414;44.534;18.700;2022-12-07T05:46:32;76.90;;;51.80;;
25511;SDS011;13414;44.534;18.700;2022-12-07T05:49:00;76.38;;;51.13;;
25511;SDS011;13414;44.534;18.700;2022-12-07T05:51:27;76.40;;;51.17;;
25511;SDS011;13414;44.534;18.700;2022-12-07T05:53:55;73.03;;;52.17;;
25511;SDS011;13414;44.534;18.700;2022-12-07T05:56:22;75.38;;;51.78;;
25511;SDS011;13414;44.534;18.700;2022-12-07T05:58:50;89.57;;;62.17;;
25511;SDS011;13414;44.534;18.700;2022-12-07T06:01:37;101.10;;;67.10;;
25511;SDS011;13414;44.534;18.700;2022-12-07T06:04:05;88.88;;;61.67;;
25511;SDS011;13414;44.534;18.700;2022-12-07T06:06:32;85.55;;;59.22;;
25511;SDS011;13414;44.534;18.700;2022-12-07T06:09:00;86.95;;;59.72;;
25511;SDS011;13414;44.534;18.700;2022-12-07T06:11:27;77.55;;;51.95;;
25511;SDS011;13414;44.534;18.700;2022-12-07T06:14:11;65.07;;;45.90;;
25511;SDS011;13414;44.534;18.700;2022-12-07T06:16:40;61.40;;;42.33;;
25511;SDS011;13414;44.534;18.700;2022-12-07T06:19:08;58.00;;;40.35;;
25511;SDS011;13414;44.534;18.700;2022-12-07T06:21:35;51.78;;;36.33;;
25511;SDS011;13414;44.534;18.700;2022-12-07T06:24:03;55.42;;;37.38;;
25511;SDS011;13414;44.534;18.700;2022-12-07T06:26:31;50.90;;;35.97;;
25511;SDS011;13414;44.534;18.700;2022-12-07T06:28:58;48.13;;;34.88;;
25511;SDS011;13414;44.534;18.700;2022-12-07T06:31:26;57.17;;;41.03;;
25511;SDS011;13414;44.534;18.700;2022-12-07T06:33:58;45.58;;;34.40;;
25511;SDS011;13414;44.534;18.700;2022-12-07T06:36:26;49.90;;;37.10;;
25511;SDS011;13414;44.534;18.700;2022-12-07T06:38:54;64.50;;;43.50;;
25511;SDS011;13414;44.534;18.700;2022-12-07T06:41:21;81.88;;;54.95;;
25511;SDS011;13414;44.534;18.700;2022-12-07T06:43:49;78.70;;;53.15;;
25511;SDS011;13414;44.534;18.700;2022-12-07T06:46:17;95.75;;;62.05;;
25511;SDS011;13414;44.534;18.700;2022-12-07T06:48:45;100.13;;;64.43;;
25511;SDS011;13414;44.534;18.700;2022-12-07T06:51:14;96.50;;;66.95;;
25511;SDS011;13414;44.534;18.700;2022-12-07T06:53:41;114.68;;;79.15;;
25511;SDS011;13414;44.534;18.700;2022-12-07T06:56:09;119.15;;;78.45;;
25511;SDS011;13414;44.534;18.700;2022-12-07T06:58:36;108.05;;;75.82;;
25511;SDS011;13414;44.534;18.700;2022-12-07T07:01:07;116.55;;;74.05;;
25511;SDS011;13414;44.534;18.700;2022-12-07T07:03:35;97.03;;;67.57;;
25511;SDS011;13414;44.534;18.700;2022-12-07T07:06:03;121.50;;;79.00;;
25511;SDS011;13414;44.534;18.700;2022-12-07T07:08:33;127.13;;;81.18;;
25511;SDS011;13414;44.534;18.700;2022-12-07T07:11:00;119.05;;;79.65;;
25511;SDS011;13414;44.534;18.700;2022-12-07T07:13:29;129.65;;;87.78;;
25511;SDS011;13414;44.534;18.700;2022-12-07T07:15:56;122.57;;;83.22;;
25511;SDS011;13414;44.534;18.700;2022-12-07T07:18:24;131.15;;;84.93;;
25511;SDS011;13414;44.534;18.700;2022-12-07T07:20:52;121.88;;;81.68;;
25511;SDS011;13414;44.534;18.700;2022-12-07T07:23:20;131.07;;;83.60;;
25511;SDS011;13414;44.534;18.700;2022-12-07T07:25:49;136.38;;;92.32;;
25511;SDS011;13414;44.534;18.700;2022-12-07T07:28:16;136.40;;;89.38;;
25511;SDS011;13414;44.534;18.700;2022-12-07T07:30:44;145.27;;;91.93;;
25511;SDS011;13414;44.534;18.700;2022-12-07T07:33:12;128.63;;;83.63;;
25511;SDS011;13414;44.534;18.700;2022-12-07T07:35:39;130.43;;;85.35;;
25511;SDS011;13414;44.534;18.700;2022-12-07T07:38:07;119.88;;;79.32;;
25511;SDS011;13414;44.534;18.700;2022-12-07T07:40:35;109.22;;;73.38;;
25511;SDS011;13414;44.534;18.700;2022-12-07T07:43:03;103.63;;;69.47;;
25511;SDS011;13414;44.534;18.700;2022-12-07T07:45:31;98.97;;;66.05;;
25511;SDS011;13414;44.534;18.700;2022-12-07T07:47:58;91.28;;;63.00;;
25511;SDS011;13414;44.534;18.700;2022-12-07T07:50:25;82.40;;;56.08;;
25511;SDS011;13414;44.534;18.700;2022-12-07T07:52:53;97.45;;;66.63;;
25511;SDS011;13414;44.534;18.700;2022-12-07T07:55:20;109.20;;;74.82;;
25511;SDS011;13414;44.534;18.700;2022-12-07T07:57:47;104.43;;;71.82;;
25511;SDS011;13414;44.534;18.700;2022-12-07T08:00:17;95.65;;;67.90;;
25511;SDS011;13414;44.534;18.700;2022-12-07T08:02:45;106.38;;;73.22;;
25511;SDS011;13414;44.534;18.700;2022-12-07T08:05:12;98.72;;;69.32;;
25511;SDS011;13414;44.534;18.700;2022-12-07T08:07:40;100.65;;;68.28;;
25511;SDS011;13414;44.534;18.700;2022-12-07T08:10:09;93.55;;;65.70;;
25511;SDS011;13414;44.534;18.700;2022-12-07T08:12:38;94.13;;;63.17;;
25511;SDS011;13414;44.534;18.700;2022-12-07T08:15:24;92.53;;;62.80;;
25511;SDS011;13414;44.534;18.700;2022-12-07T08:17:52;95.82;;;67.10;;
25511;SDS011;13414;44.534;18.700;2022-12-07T08:20:21;100.50;;;73.22;;
25511;SDS011;13414;44.534;18.700;2022-12-07T08:22:49;108.15;;;76.45;;
25511;SDS011;13414;44.534;18.700;2022-12-07T08:25:16;84.53;;;60.70;;
25511;SDS011;13414;44.534;18.700;2022-12-07T08:27:43;98.97;;;71.40;;
25511;SDS011;13414;44.534;18.700;2022-12-07T08:30:11;99.97;;;72.72;;
25511;SDS011;13414;44.534;18.700;2022-12-07T08:32:40;108.55;;;77.13;;
25511;SDS011;13414;44.534;18.700;2022-12-07T08:35:07;105.70;;;72.40;;
25511;SDS011;13414;44.534;18.700;2022-12-07T08:37:35;81.13;;;59.45;;
25511;SDS011;13414;44.534;18.700;2022-12-07T08:42:38;97.13;;;69.40;;
25511;SDS011;13414;44.534;18.700;2022-12-07T08:45:07;60.35;;;45.92;;
25511;SDS011;13414;44.534;18.700;2022-12-07T08:47:35;79.20;;;55.42;;
25511;SDS011;13414;44.534;18.700;2022-12-07T08:50:08;51.10;;;33.70;;
25511;SDS011;13414;44.534;18.700;2022-12-07T08:52:37;55.65;;;42.28;;
25511;SDS011;13414;44.534;18.700;2022-12-07T08:55:07;58.33;;;40.60;;
25511;SDS011;13414;44.534;18.700;2022-12-07T08:57:37;57.75;;;41.67;;
25511;SDS011;13414;44.534;18.700;2022-12-07T09:00:06;53.20;;;36.97;;
25511;SDS011;13414;44.534;18.700;2022-12-07T09:02:34;52.90;;;37.63;;
25511;SDS011;13414;44.534;18.700;2022-12-07T09:05:02;59.58;;;41.22;;
25511;SDS011;13414;44.534;18.700;2022-12-07T09:07:31;58.22;;;40.47;;
25511;SDS011;13414;44.534;18.700;2022-12-07T09:10:00;62.17;;;40.97;;
25511;SDS011;13414;44.534;18.700;2022-12-07T09:12:27;53.35;;;35.50;;
25511;SDS011;13414;44.534;18.700;2022-12-07T09:14:55;52.10;;;38.03;;
25511;SDS011;13414;44.534;18.700;2022-12-07T09:17:22;55.88;;;38.45;;
25511;SDS011;13414;44.534;18.700;2022-12-07T09:19:49;52.08;;;36.97;;
25511;SDS011;13414;44.534;18.700;2022-12-07T09:22:17;55.28;;;37.35;;
25511;SDS011;13414;44.534;18.700;2022-12-07T09:24:46;46.58;;;31.98;;
25511;SDS011;13414;44.534;18.700;2022-12-07T09:27:13;39.22;;;28.73;;
25511;SDS011;13414;44.534;18.700;2022-12-07T09:29:42;46.22;;;34.53;;
25511;SDS011;13414;44.534;18.700;2022-12-07T09:32:10;52.85;;;37.55;;
25511;SDS011;13414;44.534;18.700;2022-12-07T09:34:38;58.38;;;41.58;;
25511;SDS011;13414;44.534;18.700;2022-12-07T09:37:05;62.15;;;45.95;;
25511;SDS011;13414;44.534;18.700;2022-12-07T09:39:33;63.67;;;47.30;;
25511;SDS011;13414;44.534;18.700;2022-12-07T09:42:04;57.60;;;42.75;;
25511;SDS011;13414;44.534;18.700;2022-12-07T09:44:33;62.65;;;46.78;;
25511;SDS011;13414;44.534;18.700;2022-12-07T09:47:01;63.85;;;48.58;;
25511;SDS011;13414;44.534;18.700;2022-12-07T09:49:29;72.13;;;52.65;;
25511;SDS011;13414;44.534;18.700;2022-12-07T09:51:59;80.80;;;58.63;;
25511;SDS011;13414;44.534;18.700;2022-12-07T09:54:29;71.07;;;51.80;;
25511;SDS011;13414;44.534;18.700;2022-12-07T09:56:58;71.38;;;54.90;;
25511;SDS011;13414;44.534;18.700;2022-12-07T09:59:27;75.60;;;55.00;;
25511;SDS011;13414;44.534;18.700;2022-12-07T10:01:55;54.60;;;41.63;;
25511;SDS011;13414;44.534;18.700;2022-12-07T10:04:42;57.40;;;40.50;;
25511;SDS011;13414;44.534;18.700;2022-12-07T10:07:11;44.53;;;32.05;;
25511;SDS011;13414;44.534;18.700;2022-12-07T10:09:39;37.15;;;29.25;;
25511;SDS011;13414;44.534;18.700;2022-12-07T10:12:07;40.53;;;31.35;;
25511;SDS011;13414;44.534;18.700;2022-12-07T10:14:39;41.67;;;30.77;;
25511;SDS011;13414;44.534;18.700;2022-12-07T10:17:29;28.13;;;22.70;;
25511;SDS011;13414;44.534;18.700;2022-12-07T10:20:08;30.48;;;24.58;;
25511;SDS011;13414;44.534;18.700;2022-12-07T10:22:53;33.72;;;24.95;;
25511;SDS011;13414;44.534;18.700;2022-12-07T10:25:23;34.65;;;25.15;;
25511;SDS011;13414;44.534;18.700;2022-12-07T10:30:50;36.95;;;27.98;;
25511;SDS011;13414;44.534;18.700;2022-12-07T10:33:28;37.17;;;27.90;;
25511;SDS011;13414;44.534;18.700;2022-12-07T10:35:58;39.03;;;29.42;;
25511;SDS011;13414;44.534;18.700;2022-12-07T10:38:27;36.15;;;26.88;;
25511;SDS011;13414;44.534;18.700;2022-12-07T10:41:04;34.92;;;26.48;;
25511;SDS011;13414;44.534;18.700;2022-12-07T10:43:33;35.72;;;25.98;;
25511;SDS011;13414;44.534;18.700;2022-12-07T10:46:07;34.65;;;26.02;;
25511;SDS011;13414;44.534;18.700;2022-12-07T10:49:08;17.83;;;14.35;;
25511;SDS011;13414;44.534;18.700;2022-12-07T10:51:58;23.15;;;17.10;;
25511;SDS011;13414;44.534;18.700;2022-12-07T10:54:36;30.10;;;21.55;;
25511;SDS011;13414;44.534;18.700;2022-12-07T10:57:17;19.73;;;15.23;;
25511;SDS011;13414;44.534;18.700;2022-12-07T10:59:57;26.45;;;18.70;;
25511;SDS011;13414;44.534;18.700;2022-12-07T11:02:35;24.30;;;19.27;;
25511;SDS011;13414;44.534;18.700;2022-12-07T11:05:15;28.73;;;20.73;;
25511;SDS011;13414;44.534;18.700;2022-12-07T11:07:54;29.95;;;21.23;;
25511;SDS011;13414;44.534;18.700;2022-12-07T11:10:33;31.20;;;23.90;;
25511;SDS011;13414;44.534;18.700;2022-12-07T11:13:13;34.78;;;27.38;;
25511;SDS011;13414;44.534;18.700;2022-12-07T11:15:55;36.55;;;28.70;;
25511;SDS011;13414;44.534;18.700;2022-12-07T11:18:36;38.22;;;28.92;;
25511;SDS011;13414;44.534;18.700;2022-12-07T11:21:13;40.22;;;32.05;;
25511;SDS011;13414;44.534;18.700;2022-12-07T11:23:53;54.20;;;41.55;;
25511;SDS011;13414;44.534;18.700;2022-12-07T11:26:42;69.97;;;48.28;;
25511;SDS011;13414;44.534;18.700;2022-12-07T11:29:30;62.47;;;41.47;;
25511;SDS011;13414;44.534;18.700;2022-12-07T11:32:22;71.18;;;50.25;;
25511;SDS011;13414;44.534;18.700;2022-12-07T11:35:05;74.00;;;52.38;;
25511;SDS011;13414;44.534;18.700;2022-12-07T11:37:37;71.65;;;51.13;;
25511;SDS011;13414;44.534;18.700;2022-12-07T11:40:12;69.53;;;51.47;;
25511;SDS011;13414;44.534;18.700;2022-12-07T11:42:49;71.53;;;52.78;;
25511;SDS011;13414;44.534;18.700;2022-12-07T11:45:26;67.55;;;49.17;;
25511;SDS011;13414;44.534;18.700;2022-12-07T11:47:57;68.40;;;48.83;;
25511;SDS011;13414;44.534;18.700;2022-12-07T11:50:30;59.17;;;44.88;;
25511;SDS011;13414;44.534;18.700;2022-12-07T11:53:03;61.55;;;44.58;;
25511;SDS011;13414;44.534;18.700;2022-12-07T11:55:41;56.92;;;42.88;;
25511;SDS011;13414;44.534;18.700;2022-12-07T11:58:20;46.95;;;35.60;;
25511;SDS011;13414;44.534;18.700;2022-12-07T12:01:01;42.10;;;32.30;;
25511;SDS011;13414;44.534;18.700;2022-12-07T12:03:38;41.63;;;30.45;;
25511;SDS011;13414;44.534;18.700;2022-12-07T12:06:12;35.50;;;28.90;;
25511;SDS011;13414;44.534;18.700;2022-12-07T12:08:41;40.85;;;30.23;;
25511;SDS011;13414;44.534;18.700;2022-12-07T12:11:15;35.72;;;27.00;;
25511;SDS011;13414;44.534;18.700;2022-12-07T12:17:12;25.83;;;20.38;;
25511;SDS011;13414;44.534;18.700;2022-12-07T12:19:58;23.48;;;18.90;;
25511;SDS011;13414;44.534;18.700;2022-12-07T12:22:34;24.17;;;20.08;;
25511;SDS011;13414;44.534;18.700;2022-12-07T12:25:05;39.58;;;30.88;;
25511;SDS011;13414;44.534;18.700;2022-12-07T12:27:40;37.58;;;29.20;;
25511;SDS011;13414;44.534;18.700;2022-12-07T12:30:24;37.25;;;29.98;;
25511;SDS011;13414;44.534;18.700;2022-12-07T12:33:04;33.95;;;27.48;;
25511;SDS011;13414;44.534;18.700;2022-12-07T12:35:40;33.75;;;27.13;;
25511;SDS011;13414;44.534;18.700;2022-12-07T12:38:24;34.25;;;28.30;;
25511;SDS011;13414;44.534;18.700;2022-12-07T12:44:41;34.70;;;27.33;;
25511;SDS011;13414;44.534;18.700;2022-12-07T12:47:40;37.95;;;28.98;;
25511;SDS011;13414;44.534;18.700;2022-12-07T12:50:17;46.10;;;33.40;;
25511;SDS011;13414;44.534;18.700;2022-12-07T12:52:50;69.10;;;52.67;;
25511;SDS011;13414;44.534;18.700;2022-12-07T12:55:27;86.28;;;67.03;;
25511;SDS011;13414;44.534;18.700;2022-12-07T13:03:53;77.50;;;57.92;;
25511;SDS011;13414;44.534;18.700;2022-12-07T13:06:31;76.28;;;56.22;;
25511;SDS011;13414;44.534;18.700;2022-12-07T13:09:03;63.90;;;48.30;;
25511;SDS011;13414;44.534;18.700;2022-12-07T13:11:33;88.97;;;63.38;;
25511;SDS011;13414;44.534;18.700;2022-12-07T13:17:07;59.58;;;45.25;;
25511;SDS011;13414;44.534;18.700;2022-12-07T13:25:19;52.22;;;39.38;;
25511;SDS011;13414;44.534;18.700;2022-12-07T13:28:02;54.42;;;39.47;;
25511;SDS011;13414;44.534;18.700;2022-12-07T13:30:39;61.63;;;42.33;;
25511;SDS011;13414;44.534;18.700;2022-12-07T13:33:13;58.33;;;40.83;;
25511;SDS011;13414;44.534;18.700;2022-12-07T13:35:45;53.40;;;39.75;;
25511;SDS011;13414;44.534;18.700;2022-12-07T13:38:18;53.63;;;39.33;;
25511;SDS011;13414;44.534;18.700;2022-12-07T13:41:01;65.50;;;45.45;;
25511;SDS011;13414;44.534;18.700;2022-12-07T13:43:41;53.55;;;39.33;;
25511;SDS011;13414;44.534;18.700;2022-12-07T13:46:11;49.78;;;36.05;;
25511;SDS011;13414;44.534;18.700;2022-12-07T13:48:44;52.88;;;37.83;;
25511;SDS011;13414;44.534;18.700;2022-12-07T13:51:20;48.55;;;34.42;;
25511;SDS011;13414;44.534;18.700;2022-12-07T13:53:51;49.17;;;34.88;;
25511;SDS011;13414;44.534;18.700;2022-12-07T13:56:21;42.58;;;31.83;;
25511;SDS011;13414;44.534;18.700;2022-12-07T13:58:54;46.60;;;34.30;;
25511;SDS011;13414;44.534;18.700;2022-12-07T14:01:22;37.67;;;28.40;;
25511;SDS011;13414;44.534;18.700;2022-12-07T14:03:50;33.38;;;24.15;;
25511;SDS011;13414;44.534;18.700;2022-12-07T14:06:20;24.83;;;18.17;;
25511;SDS011;13414;44.534;18.700;2022-12-07T14:09:09;27.80;;;19.65;;
25511;SDS011;13414;44.534;18.700;2022-12-07T14:11:45;51.13;;;37.08;;
25511;SDS011;13414;44.534;18.700;2022-12-07T14:14:15;15.93;;;12.98;;
25511;SDS011;13414;44.534;18.700;2022-12-07T14:16:54;19.90;;;13.70;;
25511;SDS011;13414;44.534;18.700;2022-12-07T14:19:41;11.55;;;8.93;;
25511;SDS011;13414;44.534;18.700;2022-12-07T14:25:01;17.20;;;12.52;;
25511;SDS011;13414;44.534;18.700;2022-12-07T14:27:56;16.08;;;12.07;;
25511;SDS011;13414;44.534;18.700;2022-12-07T14:30:27;15.15;;;11.50;;
25511;SDS011;13414;44.534;18.700;2022-12-07T14:32:57;17.25;;;13.07;;
25511;SDS011;13414;44.534;18.700;2022-12-07T14:35:26;17.13;;;12.75;;
25511;SDS011;13414;44.534;18.700;2022-12-07T14:37:54;17.40;;;12.15;;
25511;SDS011;13414;44.534;18.700;2022-12-07T14:40:23;21.73;;;14.65;;
25511;SDS011;13414;44.534;18.700;2022-12-07T14:42:52;21.88;;;15.73;;
25511;SDS011;13414;44.534;18.700;2022-12-07T14:45:24;25.55;;;17.58;;
25511;SDS011;13414;44.534;18.700;2022-12-07T14:47:52;28.48;;;19.45;;
25511;SDS011;13414;44.534;18.700;2022-12-07T14:50:20;25.77;;;18.20;;
25511;SDS011;13414;44.534;18.700;2022-12-07T14:52:49;26.58;;;17.77;;
25511;SDS011;13414;44.534;18.700;2022-12-07T14:55:23;25.88;;;18.00;;
25511;SDS011;13414;44.534;18.700;2022-12-07T14:57:54;25.52;;;17.58;;